createdAt,value
2022-09-14T00:00:29.613Z,12.90
2022-09-14T00:02:57.737Z,12.80
2022-09-14T00:05:25.985Z,12.80
2022-09-14T00:07:53.965Z,12.80
2022-09-14T00:10:23.366Z,12.80
2022-09-14T00:12:52.708Z,12.80
2022-09-14T00:15:20.710Z,12.70
2022-09-14T00:17:48.696Z,12.80
2022-09-14T00:20:16.821Z,12.80
2022-09-14T00:22:44.806Z,12.80
2022-09-14T00:25:12.823Z,12.70
2022-09-14T00:27:40.816Z,12.70
2022-09-14T00:30:11.499Z,12.70
2022-09-14T00:32:39.605Z,12.70
2022-09-14T00:35:08.215Z,12.70
2022-09-14T00:37:36.206Z,12.60
2022-09-14T00:40:04.896Z,12.60
2022-09-14T00:42:32.934Z,12.50
2022-09-14T00:45:08.333Z,12.50
2022-09-14T00:47:37.749Z,12.40
2022-09-14T00:50:07.042Z,12.40
2022-09-14T00:52:36.336Z,12.40
2022-09-14T00:55:06.335Z,12.40
2022-09-14T00:57:37.104Z,12.40
2022-09-14T01:00:07.215Z,12.40
2022-09-14T01:02:35.467Z,12.40
2022-09-14T01:05:05.282Z,12.40
2022-09-14T01:07:56.606Z,12.40
2022-09-14T01:10:42.906Z,12.40
2022-09-14T01:13:19.079Z,12.40
2022-09-14T01:15:53.398Z,12.40
2022-09-14T01:18:23.884Z,12.50
2022-09-14T01:20:56.360Z,12.40
2022-09-14T01:23:28.730Z,12.50
2022-09-14T01:26:06.747Z,12.50
2022-09-14T01:28:37.582Z,12.50
2022-09-14T01:31:08.141Z,12.50
2022-09-14T01:33:38.409Z,12.50
2022-09-14T01:36:07.663Z,12.50
2022-09-14T01:38:37.144Z,12.50
2022-09-14T01:41:06.432Z,12.50
2022-09-14T01:43:37.716Z,12.50
2022-09-14T01:46:07.673Z,12.50
2022-09-14T01:48:36.898Z,12.40
2022-09-14T01:51:06.769Z,12.40
2022-09-14T01:53:37.881Z,12.40
2022-09-14T01:56:08.321Z,12.40
2022-09-14T01:58:38.830Z,12.40
2022-09-14T02:01:07.675Z,12.40
2022-09-14T02:03:39.814Z,12.30
2022-09-14T02:06:10.396Z,12.30
2022-09-14T02:08:38.376Z,12.30
2022-09-14T02:11:06.496Z,12.30
2022-09-14T02:13:34.514Z,12.30
2022-09-14T02:16:03.981Z,12.30
2022-09-14T02:18:32.226Z,12.20
2022-09-14T02:21:01.236Z,12.20
2022-09-14T02:23:29.534Z,12.20
2022-09-14T02:25:57.570Z,12.20
2022-09-14T02:28:25.555Z,12.20
2022-09-14T02:31:04.446Z,12.20
2022-09-14T02:33:36.646Z,12.10
2022-09-14T02:36:08.553Z,12.10
2022-09-14T02:38:40.913Z,12.00
2022-09-14T02:41:12.162Z,12.00
2022-09-14T02:43:43.908Z,12.00
2022-09-14T02:46:15.090Z,11.90
2022-09-14T02:48:48.475Z,11.90
2022-09-14T02:51:21.167Z,11.80
2022-09-14T02:53:51.650Z,11.80
2022-09-14T02:56:19.591Z,11.70
2022-09-14T02:58:47.599Z,11.80
2022-09-14T03:01:16.528Z,11.70
2022-09-14T03:03:46.036Z,11.70
2022-09-14T03:06:14.082Z,11.70
2022-09-14T03:08:42.146Z,11.70
2022-09-14T03:11:10.175Z,11.70
2022-09-14T03:13:38.281Z,11.60
2022-09-14T03:16:07.338Z,11.70
2022-09-14T03:18:35.515Z,11.70
2022-09-14T03:21:06.203Z,11.70
2022-09-14T03:23:37.635Z,11.70
2022-09-14T03:26:08.612Z,11.70
2022-09-14T03:28:36.624Z,11.70
2022-09-14T03:31:05.367Z,11.70
2022-09-14T03:33:33.609Z,11.70
2022-09-14T03:36:01.720Z,11.70
2022-09-14T03:38:31.062Z,11.70
2022-09-14T03:40:59.641Z,11.60
2022-09-14T03:43:27.701Z,11.60
2022-09-14T03:45:55.699Z,11.60
2022-09-14T03:48:23.696Z,11.50
2022-09-14T03:50:51.716Z,11.60
2022-09-14T03:53:19.950Z,11.50
2022-09-14T03:55:49.329Z,11.50
2022-09-14T03:58:17.327Z,11.50
2022-09-14T04:00:45.354Z,11.50
2022-09-14T04:03:13.402Z,11.50
2022-09-14T04:05:41.449Z,11.50
2022-09-14T04:08:09.499Z,11.50
2022-09-14T04:10:37.535Z,11.60
2022-09-14T04:13:06.878Z,11.60
2022-09-14T04:15:34.894Z,11.60
2022-09-14T04:18:02.886Z,11.60
2022-09-14T04:20:30.908Z,11.60
2022-09-14T04:22:58.905Z,11.60
2022-09-14T04:25:27.028Z,11.60
2022-09-14T04:28:16.788Z,11.60
2022-09-14T04:30:44.708Z,11.70
2022-09-14T04:33:12.707Z,11.70
2022-09-14T04:35:40.727Z,11.60
2022-09-14T04:38:08.736Z,11.60
2022-09-14T04:40:36.757Z,11.70
2022-09-14T04:43:04.782Z,11.70
2022-09-14T04:45:32.804Z,11.70
2022-09-14T04:48:02.264Z,11.70
2022-09-14T04:50:30.288Z,11.70
2022-09-14T04:53:03.411Z,11.70
2022-09-14T04:55:31.431Z,11.70
2022-09-14T04:57:59.439Z,11.70
2022-09-14T05:00:27.464Z,11.70
2022-09-14T05:02:55.492Z,11.70
2022-09-14T05:05:25.102Z,11.80
2022-09-14T05:07:53.100Z,11.80
2022-09-14T05:10:21.189Z,11.90
2022-09-14T05:12:49.188Z,11.90
2022-09-14T05:15:17.259Z,11.90
2022-09-14T05:17:45.246Z,11.90
2022-09-14T05:20:13.272Z,11.90
2022-09-14T05:22:42.614Z,11.80
2022-09-14T05:25:11.248Z,11.90
2022-09-14T05:27:39.244Z,11.90
2022-09-14T05:30:08.516Z,12.00
2022-09-14T05:32:36.546Z,12.00
2022-09-14T05:35:04.748Z,12.00
2022-09-14T05:37:32.748Z,12.00
2022-09-14T05:40:02.207Z,12.10
2022-09-14T05:42:30.254Z,12.10
2022-09-14T05:44:58.263Z,12.10
2022-09-14T05:47:26.260Z,12.30
2022-09-14T05:49:54.271Z,12.30
2022-09-14T05:52:22.258Z,12.50
2022-09-14T05:54:50.283Z,12.50
2022-09-14T05:57:19.639Z,12.70
2022-09-14T05:59:47.654Z,12.80
2022-09-14T06:02:18.170Z,12.90
2022-09-14T06:04:47.162Z,13.00
2022-09-14T06:07:18.796Z,13.10
2022-09-14T06:09:47.252Z,13.10
2022-09-14T06:12:15.656Z,13.20
2022-09-14T06:14:45.032Z,13.40
2022-09-14T06:17:13.021Z,13.50
2022-09-14T06:19:41.029Z,13.60
2022-09-14T06:22:09.030Z,13.60
2022-09-14T06:24:37.472Z,13.80
2022-09-14T06:27:06.786Z,13.90
2022-09-14T06:29:34.805Z,13.90
2022-09-14T06:32:04.589Z,14.00
2022-09-14T06:34:32.611Z,14.00
2022-09-14T06:37:00.612Z,14.30
2022-09-14T06:39:28.640Z,14.50
2022-09-14T06:41:56.650Z,14.60
2022-09-14T06:44:28.452Z,14.60
2022-09-14T06:46:56.442Z,14.60
2022-09-14T06:49:25.816Z,14.60
2022-09-14T06:51:56.065Z,14.60
2022-09-14T06:54:24.215Z,14.50
2022-09-14T06:56:52.201Z,14.70
2022-09-14T06:59:20.217Z,14.80
2022-09-14T07:01:49.783Z,14.80
2022-09-14T07:04:17.879Z,14.90
2022-09-14T07:06:48.024Z,15.00
2022-09-14T07:09:16.151Z,15.00
2022-09-14T07:11:44.392Z,15.10
2022-09-14T07:14:12.603Z,15.20
2022-09-14T07:16:41.012Z,15.20
2022-09-14T07:19:11.426Z,15.10
2022-09-14T07:21:39.473Z,15.20
2022-09-14T07:24:08.852Z,15.20
2022-09-14T07:26:41.768Z,15.40
2022-09-14T07:29:14.057Z,15.40
2022-09-14T07:31:43.239Z,15.50
2022-09-14T07:34:11.260Z,15.40
2022-09-14T07:36:39.444Z,15.40
2022-09-14T07:39:10.164Z,15.70
2022-09-14T07:41:38.154Z,15.70
2022-09-14T07:44:07.468Z,15.90
2022-09-14T07:46:39.262Z,16.00
2022-09-14T07:49:07.849Z,16.10
2022-09-14T07:51:36.873Z,16.10
2022-09-14T07:54:05.218Z,16.40
2022-09-14T07:56:35.039Z,16.40
2022-09-14T07:59:30.881Z,16.30
2022-09-14T08:01:52.097Z,16.20
2022-09-14T08:04:20.897Z,16.40
2022-09-14T08:06:48.857Z,16.70
2022-09-14T08:09:16.836Z,17.00
2022-09-14T08:11:46.184Z,17.10
2022-09-14T08:14:15.594Z,17.10
2022-09-14T08:16:43.626Z,17.40
2022-09-14T08:19:14.183Z,17.60
2022-09-14T08:21:46.512Z,17.90
2022-09-14T08:24:15.512Z,17.90
2022-09-14T08:26:44.836Z,18.10
2022-09-14T08:29:13.310Z,18.30
2022-09-14T08:31:41.362Z,18.30
2022-09-14T08:34:09.725Z,17.80
2022-09-14T08:36:38.871Z,18.00
2022-09-14T08:39:09.273Z,18.00
2022-09-14T08:41:39.821Z,18.10
2022-09-14T08:44:15.601Z,18.10
2022-09-14T08:46:44.791Z,18.20
2022-09-14T08:49:14.262Z,18.30
2022-09-14T08:51:43.158Z,18.80
2022-09-14T08:54:11.140Z,18.70
2022-09-14T08:56:41.367Z,18.60
2022-09-14T08:59:20.642Z,18.40
2022-09-14T09:01:53.630Z,18.60
2022-09-14T09:04:26.623Z,19.00
2022-09-14T09:06:58.256Z,19.10
2022-09-14T09:09:29.271Z,19.10
2022-09-14T09:11:57.230Z,19.10
2022-09-14T09:14:28.076Z,19.50
2022-09-14T09:16:57.298Z,19.90
2022-09-14T09:19:28.908Z,20.20
2022-09-14T09:21:56.917Z,20.50
2022-09-14T09:24:28.642Z,20.40
2022-09-14T09:26:56.606Z,20.30
2022-09-14T09:29:25.972Z,20.50
2022-09-14T09:32:13.822Z,20.50
2022-09-14T09:35:15.920Z,20.80
2022-09-14T09:38:15.843Z,20.40
2022-09-14T09:40:46.419Z,20.80
2022-09-14T09:43:24.455Z,20.60
2022-09-14T09:46:06.066Z,21.20
2022-09-14T09:48:40.007Z,21.10
2022-09-14T09:51:11.141Z,20.90
2022-09-14T09:53:46.500Z,21.10
2022-09-14T09:56:18.897Z,21.10
2022-09-14T09:58:51.611Z,21.70
2022-09-14T10:01:23.264Z,21.40
2022-09-14T10:04:06.413Z,22.00
2022-09-14T10:06:42.596Z,22.30
2022-09-14T10:09:14.220Z,22.40
2022-09-14T10:11:42.250Z,22.50
2022-09-14T10:14:22.043Z,23.00
2022-09-14T10:16:51.391Z,23.30
2022-09-14T10:19:22.475Z,23.50
2022-09-14T10:22:04.902Z,22.70
2022-09-14T10:24:34.172Z,22.70
2022-09-14T10:27:02.164Z,23.00
2022-09-14T10:29:35.744Z,23.30
2022-09-14T10:32:10.710Z,22.60
2022-09-14T10:34:38.718Z,22.40
2022-09-14T10:37:13.903Z,22.40
2022-09-14T10:39:45.410Z,22.40
2022-09-14T10:42:17.720Z,21.90
2022-09-14T10:44:51.616Z,21.30
2022-09-14T10:47:33.330Z,21.50
2022-09-14T10:50:08.706Z,21.60
2022-09-14T10:52:40.731Z,21.50
2022-09-14T10:55:20.618Z,21.30
2022-09-14T10:57:57.086Z,21.40
2022-09-14T11:00:25.355Z,21.30
2022-09-14T11:03:17.245Z,21.30
2022-09-14T11:05:47.616Z,21.40
2022-09-14T11:08:19.219Z,21.20
2022-09-14T11:10:56.895Z,21.20
2022-09-14T11:13:35.139Z,21.40
2022-09-14T11:16:09.323Z,21.90
2022-09-14T11:18:43.134Z,22.00
2022-09-14T11:21:16.350Z,22.00
2022-09-14T11:23:48.413Z,22.00
2022-09-14T11:26:19.298Z,21.90
2022-09-14T11:28:49.480Z,21.80
2022-09-14T11:31:20.171Z,21.80
2022-09-14T11:33:52.893Z,21.80
2022-09-14T11:36:22.270Z,21.80
2022-09-14T11:38:52.394Z,21.80
2022-09-14T11:41:25.217Z,21.70
2022-09-14T11:43:55.981Z,21.60
2022-09-14T11:46:26.938Z,21.60
2022-09-14T11:48:58.528Z,21.70
2022-09-14T11:51:29.172Z,22.00
2022-09-14T11:53:57.195Z,22.20
2022-09-14T11:56:26.861Z,22.40
2022-09-14T11:58:56.645Z,22.20
2022-09-14T12:01:32.817Z,22.30
2022-09-14T12:04:15.720Z,22.50
2022-09-14T12:06:55.151Z,22.10
2022-09-14T12:09:51.566Z,22.10
2022-09-14T12:12:36.018Z,22.90
2022-09-14T12:15:05.462Z,22.90
2022-09-14T12:17:41.721Z,22.60
2022-09-14T12:20:38.906Z,22.70
2022-09-14T12:23:12.135Z,23.30
2022-09-14T12:25:40.595Z,22.50
2022-09-14T12:28:30.874Z,22.30
2022-09-14T12:31:11.473Z,22.10
2022-09-14T12:34:01.163Z,21.80
2022-09-14T12:37:12.348Z,21.50
2022-09-14T12:39:41.950Z,21.60
2022-09-14T12:42:27.302Z,21.70
2022-09-14T12:44:55.387Z,21.50
2022-09-14T12:47:59.969Z,21.40
2022-09-14T12:50:29.402Z,21.20
2022-09-14T12:53:05.590Z,21.60
2022-09-14T12:55:55.741Z,21.60
2022-09-14T12:58:59.877Z,21.90
2022-09-14T13:01:33.500Z,21.60
2022-09-14T13:04:01.679Z,21.50
2022-09-14T13:06:34.608Z,21.60
2022-09-14T13:09:06.253Z,21.70
2022-09-14T13:11:39.395Z,21.70
2022-09-14T13:14:07.419Z,21.60
2022-09-14T13:16:40.815Z,21.60
2022-09-14T13:19:20.682Z,21.40
2022-09-14T13:21:49.239Z,21.40
2022-09-14T13:24:21.769Z,21.50
2022-09-14T13:26:51.130Z,21.60
2022-09-14T13:29:19.158Z,21.40
2022-09-14T13:31:47.164Z,21.40
2022-09-14T13:34:19.142Z,21.60
2022-09-14T13:36:47.134Z,21.70
2022-09-14T13:39:21.934Z,21.60
2022-09-14T13:41:51.276Z,21.40
2022-09-14T13:44:19.298Z,21.50
2022-09-14T13:46:47.301Z,21.50
2022-09-14T13:49:15.323Z,21.50
2022-09-14T13:51:43.324Z,21.40
2022-09-14T13:54:19.021Z,21.20
2022-09-14T13:56:47.416Z,21.20
2022-09-14T13:59:21.692Z,21.20
2022-09-14T14:01:57.933Z,21.10
2022-09-14T14:04:29.530Z,21.30
2022-09-14T14:07:08.484Z,21.10
2022-09-14T14:09:42.686Z,21.30
2022-09-14T14:12:11.528Z,21.20
2022-09-14T14:14:40.912Z,21.30
2022-09-14T14:17:36.901Z,21.30
2022-09-14T14:20:33.655Z,21.10
2022-09-14T14:23:04.678Z,21.00
2022-09-14T14:25:34.295Z,21.00
2022-09-14T14:28:03.143Z,21.20
2022-09-14T14:30:32.856Z,21.20
2022-09-14T14:33:01.469Z,21.30
2022-09-14T14:35:31.315Z,21.10
2022-09-14T14:37:59.549Z,21.00
2022-09-14T14:40:28.360Z,21.00
2022-09-14T14:42:58.180Z,21.00
2022-09-14T14:45:27.437Z,20.90
2022-09-14T14:47:57.244Z,21.00
2022-09-14T14:50:27.084Z,20.90
2022-09-14T14:52:55.125Z,20.90
2022-09-14T14:55:23.422Z,20.90
2022-09-14T14:57:51.934Z,20.80
2022-09-14T15:00:21.292Z,20.80
2022-09-14T15:02:49.360Z,20.70
2022-09-14T15:05:18.764Z,20.60
2022-09-14T15:07:47.669Z,20.50
2022-09-14T15:10:16.438Z,20.60
2022-09-14T15:12:44.489Z,20.40
2022-09-14T15:15:14.082Z,20.40
2022-09-14T15:17:42.534Z,20.40
2022-09-14T15:20:10.750Z,20.40
2022-09-14T15:22:42.856Z,20.40
2022-09-14T15:25:11.138Z,20.30
2022-09-14T15:27:39.144Z,20.30
2022-09-14T15:30:08.424Z,20.30
2022-09-14T15:32:36.447Z,20.20
2022-09-14T15:35:04.732Z,20.20
2022-09-14T15:37:32.739Z,20.20
2022-09-14T15:40:02.259Z,20.10
2022-09-14T15:42:30.315Z,20.00
2022-09-14T15:44:58.335Z,20.00
2022-09-14T15:47:26.343Z,19.90
2022-09-14T15:49:54.361Z,19.80
2022-09-14T15:52:22.371Z,19.70
2022-09-14T15:54:50.396Z,19.60
2022-09-14T15:57:19.747Z,19.70
2022-09-14T15:59:48.007Z,19.60
2022-09-14T16:02:17.037Z,19.50
2022-09-14T16:04:45.134Z,19.30
2022-09-14T16:07:13.395Z,19.20
2022-09-14T16:09:41.971Z,19.20
2022-09-14T16:12:10.243Z,19.20
2022-09-14T16:14:39.608Z,19.10
2022-09-14T16:17:08.579Z,19.10
2022-09-14T16:19:36.623Z,19.10
2022-09-14T16:22:04.658Z,19.10
2022-09-14T16:24:32.693Z,19.10
2022-09-14T16:27:00.940Z,19.00
2022-09-14T16:29:28.963Z,19.00
2022-09-14T16:31:58.391Z,18.80
2022-09-14T16:34:27.407Z,18.80
2022-09-14T16:36:55.551Z,18.80
2022-09-14T16:39:25.216Z,18.80
2022-09-14T16:41:54.057Z,18.70
2022-09-14T16:44:23.449Z,18.60
2022-09-14T16:46:51.637Z,18.60
2022-09-14T16:49:26.359Z,18.60
2022-09-14T16:51:55.428Z,18.50
2022-09-14T16:54:24.419Z,18.50
2022-09-14T16:56:54.622Z,18.50
2022-09-14T16:59:23.125Z,18.50
2022-09-14T17:01:54.683Z,18.50
2022-09-14T17:04:25.104Z,18.40
2022-09-14T17:06:53.334Z,18.40
2022-09-14T17:09:22.220Z,18.30
2022-09-14T17:11:50.274Z,18.20
2022-09-14T17:14:19.129Z,18.20
2022-09-14T17:16:47.281Z,18.10
2022-09-14T17:19:15.665Z,18.00
2022-09-14T17:21:45.766Z,18.10
2022-09-14T17:24:14.066Z,18.10
2022-09-14T17:26:42.538Z,18.00
2022-09-14T17:29:10.681Z,18.00
2022-09-14T17:31:39.678Z,17.90
2022-09-14T17:34:08.972Z,17.90
2022-09-14T17:36:38.196Z,17.90
2022-09-14T17:39:11.744Z,17.90
2022-09-14T17:41:40.808Z,17.80
2022-09-14T17:44:09.127Z,17.80
2022-09-14T17:46:44.457Z,17.80
2022-09-14T17:49:16.637Z,17.80
2022-09-14T17:51:45.337Z,17.70
2022-09-14T17:54:14.795Z,17.60
2022-09-14T17:56:42.787Z,17.70
2022-09-14T17:59:12.703Z,17.60
2022-09-14T18:01:40.979Z,17.60
2022-09-14T18:04:10.858Z,17.50
2022-09-14T18:06:39.760Z,17.50
2022-09-14T18:09:10.006Z,17.50
2022-09-14T18:11:39.375Z,17.30
2022-09-14T18:14:07.487Z,17.40
2022-09-14T18:16:35.567Z,17.40
2022-09-14T18:19:03.619Z,17.40
2022-09-14T18:21:31.616Z,17.40
2022-09-14T18:23:59.634Z,17.30
2022-09-14T18:26:27.680Z,17.30
2022-09-14T18:28:58.775Z,17.30
2022-09-14T18:31:27.012Z,17.30
2022-09-14T18:33:56.043Z,17.30
2022-09-14T18:36:24.107Z,17.30
2022-09-14T18:38:53.647Z,17.30
2022-09-14T18:41:22.090Z,17.30
2022-09-14T18:43:51.145Z,17.30
2022-09-14T18:46:22.481Z,17.30
2022-09-14T18:48:54.276Z,17.20
2022-09-14T18:51:22.373Z,17.20
2022-09-14T18:53:50.392Z,17.20
2022-09-14T18:56:19.128Z,17.20
2022-09-14T18:58:47.934Z,17.10
2022-09-14T19:01:16.123Z,17.10
2022-09-14T19:03:45.532Z,17.10
2022-09-14T19:06:14.487Z,17.10
2022-09-14T19:08:42.626Z,17.10
2022-09-14T19:11:11.863Z,17.00
2022-09-14T19:13:39.938Z,17.00
2022-09-14T19:16:08.671Z,17.00
2022-09-14T19:18:36.807Z,16.90
2022-09-14T19:21:07.464Z,16.90
2022-09-14T19:23:36.411Z,16.90
2022-09-14T19:26:06.107Z,16.90
2022-09-14T19:28:34.975Z,16.90
2022-09-14T19:31:06.404Z,16.90
2022-09-14T19:33:34.467Z,16.90
2022-09-14T19:36:08.611Z,16.90
2022-09-14T19:38:36.739Z,16.80
2022-09-14T19:41:04.876Z,16.80
2022-09-14T19:43:33.555Z,16.80
2022-09-14T19:46:04.040Z,16.80
2022-09-14T19:48:32.130Z,16.80
2022-09-14T19:51:00.959Z,16.80
2022-09-14T19:53:30.826Z,16.70
2022-09-14T19:55:58.882Z,16.70
2022-09-14T19:58:28.708Z,16.70
2022-09-14T20:00:56.838Z,16.70
2022-09-14T20:03:24.948Z,16.70
2022-09-14T20:06:00.313Z,16.70
2022-09-14T20:08:29.847Z,16.70
2022-09-14T20:10:57.986Z,16.60
2022-09-14T20:13:25.977Z,16.60
2022-09-14T20:15:54.037Z,16.70
2022-09-14T20:18:22.115Z,16.60
2022-09-14T20:20:50.111Z,16.60
2022-09-14T20:23:18.132Z,16.60
2022-09-14T20:25:47.487Z,16.60
2022-09-14T20:28:15.585Z,16.60
2022-09-14T20:30:43.611Z,16.60
2022-09-14T20:33:12.110Z,16.60
2022-09-14T20:35:40.146Z,16.60
2022-09-14T20:38:08.158Z,16.60
2022-09-14T20:40:36.194Z,16.60
2022-09-14T20:43:05.619Z,16.60
2022-09-14T20:45:33.605Z,16.60
2022-09-14T20:48:01.935Z,16.60
2022-09-14T20:50:29.925Z,16.60
2022-09-14T20:52:57.944Z,16.60
2022-09-14T20:55:25.966Z,16.60
2022-09-14T20:57:54.383Z,16.60
2022-09-14T21:00:23.727Z,16.50
2022-09-14T21:02:52.434Z,16.50
2022-09-14T21:05:20.469Z,16.50
2022-09-14T21:07:56.111Z,16.50
2022-09-14T21:10:28.630Z,16.50
2022-09-14T21:12:57.450Z,16.50
2022-09-14T21:15:26.994Z,16.50
2022-09-14T21:17:55.023Z,16.50
2022-09-14T21:20:23.024Z,16.50
2022-09-14T21:22:51.039Z,16.50
2022-09-14T21:25:19.040Z,16.40
2022-09-14T21:27:47.061Z,16.50
2022-09-14T21:30:15.067Z,16.40
2022-09-14T21:32:49.611Z,16.40
2022-09-14T21:35:17.871Z,16.40
2022-09-14T21:37:46.863Z,16.40
2022-09-14T21:40:15.111Z,16.40
2022-09-14T21:42:43.176Z,16.40
2022-09-14T21:45:11.973Z,16.40
2022-09-14T21:47:39.989Z,16.40
2022-09-14T21:50:10.507Z,16.30
2022-09-14T21:52:44.005Z,16.40
2022-09-14T21:55:12.023Z,16.40
2022-09-14T21:57:40.056Z,16.30
2022-09-14T22:00:12.234Z,16.30
2022-09-14T22:02:40.323Z,16.30
2022-09-14T22:05:10.143Z,16.30
2022-09-14T22:07:39.342Z,16.30
2022-09-14T22:10:08.630Z,16.30
2022-09-14T22:12:36.646Z,16.30
2022-09-14T22:15:04.819Z,16.20
2022-09-14T22:17:33.258Z,16.30
2022-09-14T22:20:01.254Z,16.20
2022-09-14T22:22:30.622Z,16.20
2022-09-14T22:24:58.619Z,16.20
2022-09-14T22:27:26.687Z,16.20
2022-09-14T22:29:54.790Z,16.20
2022-09-14T22:32:22.805Z,16.10
2022-09-14T22:34:51.774Z,16.10
2022-09-14T22:37:19.773Z,16.10
2022-09-14T22:39:49.197Z,16.10
2022-09-14T22:42:17.267Z,16.00
2022-09-14T22:44:45.287Z,16.00
2022-09-14T22:47:14.174Z,16.00
2022-09-14T22:49:42.241Z,15.90
2022-09-14T22:52:10.243Z,15.90
2022-09-14T22:54:38.263Z,15.90
2022-09-14T22:57:07.647Z,15.90
2022-09-14T22:59:35.671Z,15.90
2022-09-14T23:02:03.747Z,15.70
2022-09-14T23:04:32.741Z,15.60
2022-09-14T23:07:01.111Z,15.60
2022-09-14T23:09:29.145Z,15.60
2022-09-14T23:11:57.146Z,15.60
2022-09-14T23:14:26.734Z,15.50
2022-09-14T23:16:54.878Z,15.40
2022-09-14T23:19:22.970Z,15.30
2022-09-14T23:21:50.954Z,15.30
2022-09-14T23:24:18.976Z,15.20
2022-09-14T23:26:46.958Z,15.10
2022-09-14T23:29:15.963Z,15.00
2022-09-14T23:31:45.457Z,14.90
2022-09-14T23:34:13.475Z,14.90
2022-09-14T23:36:41.541Z,14.90
2022-09-14T23:39:09.555Z,14.90
2022-09-14T23:41:37.983Z,14.90
2022-09-14T23:44:06.027Z,14.90
2022-09-14T23:46:34.026Z,14.90
2022-09-14T23:49:03.402Z,14.70
2022-09-14T23:51:31.411Z,14.70
2022-09-14T23:53:59.452Z,14.70
2022-09-14T23:56:27.510Z,14.70
2022-09-14T23:58:55.531Z,14.60
